Automated Weather Station

Lita, Tayabas, Quezon


Readings

as of August 06, 2016 01:00 AM
Wind Speed
1.4 mm
Rainfall Amount
0 mm
Rainfall Intensity
0 mm
Air Temperature
mm
Wind Direction
293 mm
Air Humidity
88.4 mm

Data Source: PREDICT (Advanced Science and Technology Institute)

12 HOUR DATA

PREVIOUS DATA

From
To
DateTime Wind Speed Rain Amount Rain Intensity Air Temperature Air Pressure Wind Direction Air Humidity
August 04, 2016 09:45 AM 0 0 mm 0 30.9 989.22 0 64.9
August 04, 2016 09:30 AM 0 0 mm 0 30.9 989.49 0 64.2
August 04, 2016 09:15 AM 0 0 mm 0 30.7 989.49 0 64.7
August 04, 2016 09:00 AM 0 0 mm 0 30.1 989.62 0 68.7
August 04, 2016 08:45 AM 0 0 mm 0 30.2 989.22 0 70.7
August 04, 2016 08:30 AM 0 0 mm 0 30.4 989.09 0 65.7
August 04, 2016 08:15 AM 0 0 mm 0 30.2 989.62 0 68.6
August 04, 2016 08:00 AM 0 0 mm 0 29.6 989.62 0 70.4
August 04, 2016 07:45 AM 0 0 mm 0 29.4 989.49 0 71.1
August 04, 2016 07:30 AM 0 0 mm 0 29.3 989.35 0 72.5
August 04, 2016 07:15 AM 0 0 mm 0 29.5 989.22 0 71.8
August 04, 2016 07:00 AM 0 0 mm 0 29.5 988.95 0 69.3
August 04, 2016 06:45 AM 0 0 mm 0 28.6 988.69 0 72.1
August 04, 2016 06:30 AM 0 0 mm 0 26.5 988.42 0 76.7
August 04, 2016 06:15 AM 0 0 mm 0 25.4 988.29 0 81.9
August 04, 2016 06:00 AM 0 0 mm 0 24.6 988.15 0 84.2
August 04, 2016 05:45 AM 0 0 mm 0 24.5 988.15 0 85.1
August 04, 2016 05:30 AM 0 0 mm 0 24.7 988.02 0 83.6
August 04, 2016 05:15 AM 0 0 mm 0 24.6 987.89 0 83.5
August 04, 2016 05:00 AM 0 0 mm 0 24.4 987.75 0 84.4
August 04, 2016 04:45 AM 0 0 mm 0 24.5 987.62 0 83.7
August 04, 2016 04:30 AM 0 0 mm 0 24.5 987.62 0 83.9
August 04, 2016 04:15 AM 0 0 mm 0 24.7 987.75 0 82.2
August 04, 2016 04:00 AM 0 0 mm 0 24.7 987.89 0 81.9
August 04, 2016 03:45 AM 0 0 mm 0 24.9 988.02 0 81.9
August 04, 2016 03:30 AM 0 0 mm 0 24.9 988.02 0 81.9
August 04, 2016 03:15 AM 0 0 mm 0 24.7 988.02 0 83.7
August 04, 2016 03:00 AM 0 0 mm 0 24.9 988.02 0 83.5
August 04, 2016 02:45 AM 0 0 mm 0 25.2 988.15 0 82.2
August 04, 2016 02:30 AM 0 0 mm 0 25.2 988.29 0 82.3